sensor_id;sensor_type;location;lat;lon;timestamp;pressure;altitude;pressure_sealevel;temperature
20848;BMP180;10584;50.854;12.902;2022-10-16T00:00:46;97851.00;;;15.50
20848;BMP180;10584;50.854;12.902;2022-10-16T00:05:48;97852.00;;;15.40
20848;BMP180;10584;50.854;12.902;2022-10-16T00:10:51;97861.00;;;15.40
20848;BMP180;10584;50.854;12.902;2022-10-16T00:15:56;97869.00;;;15.30
20848;BMP180;10584;50.854;12.902;2022-10-16T00:21:04;97866.00;;;15.30
20848;BMP180;10584;50.854;12.902;2022-10-16T00:26:11;97874.00;;;15.30
20848;BMP180;10584;50.854;12.902;2022-10-16T00:31:16;97881.00;;;15.30
20848;BMP180;10584;50.854;12.902;2022-10-16T00:36:22;97885.00;;;15.20
20848;BMP180;10584;50.854;12.902;2022-10-16T00:41:26;97894.00;;;15.20
20848;BMP180;10584;50.854;12.902;2022-10-16T00:46:37;97892.00;;;15.20
20848;BMP180;10584;50.854;12.902;2022-10-16T00:51:43;97891.00;;;15.30
20848;BMP180;10584;50.854;12.902;2022-10-16T00:56:46;97894.00;;;15.30
20848;BMP180;10584;50.854;12.902;2022-10-16T01:01:50;97906.00;;;15.30
20848;BMP180;10584;50.854;12.902;2022-10-16T01:18:03;97905.00;;;15.50
20848;BMP180;10584;50.854;12.902;2022-10-16T01:23:59;97903.00;;;15.60
20848;BMP180;10584;50.854;12.902;2022-10-16T01:33:51;97890.00;;;15.70
20848;BMP180;10584;50.854;12.902;2022-10-16T01:39:01;97903.00;;;15.70
20848;BMP180;10584;50.854;12.902;2022-10-16T01:44:21;97895.00;;;15.60
20848;BMP180;10584;50.854;12.902;2022-10-16T01:49:28;97892.00;;;15.70
20848;BMP180;10584;50.854;12.902;2022-10-16T01:54:34;97886.00;;;15.60
20848;BMP180;10584;50.854;12.902;2022-10-16T01:59:47;97901.00;;;15.60
20848;BMP180;10584;50.854;12.902;2022-10-16T02:04:57;97901.00;;;15.50
20848;BMP180;10584;50.854;12.902;2022-10-16T02:10:01;97905.00;;;15.30
20848;BMP180;10584;50.854;12.902;2022-10-16T02:15:05;97907.00;;;15.30
20848;BMP180;10584;50.854;12.902;2022-10-16T02:20:08;97898.00;;;15.20
20848;BMP180;10584;50.854;12.902;2022-10-16T02:25:26;97905.00;;;15.20
20848;BMP180;10584;50.854;12.902;2022-10-16T02:35:42;97914.00;;;15.10
20848;BMP180;10584;50.854;12.902;2022-10-16T02:40:47;97898.00;;;15.00
20848;BMP180;10584;50.854;12.902;2022-10-16T02:45:50;97896.00;;;15.00
20848;BMP180;10584;50.854;12.902;2022-10-16T02:50:53;97900.00;;;14.90
20848;BMP180;10584;50.854;12.902;2022-10-16T02:55:56;97913.00;;;14.90
20848;BMP180;10584;50.854;12.902;2022-10-16T03:00:58;97925.00;;;14.90
20848;BMP180;10584;50.854;12.902;2022-10-16T03:06:01;97920.00;;;14.80
20848;BMP180;10584;50.854;12.902;2022-10-16T03:11:05;97917.00;;;14.80
20848;BMP180;10584;50.854;12.902;2022-10-16T03:16:08;97923.00;;;14.70
20848;BMP180;10584;50.854;12.902;2022-10-16T03:21:10;97914.00;;;14.70
20848;BMP180;10584;50.854;12.902;2022-10-16T03:26:13;97906.00;;;14.60
20848;BMP180;10584;50.854;12.902;2022-10-16T03:31:16;97906.00;;;14.60
20848;BMP180;10584;50.854;12.902;2022-10-16T03:36:19;97912.00;;;14.60
20848;BMP180;10584;50.854;12.902;2022-10-16T03:41:22;97931.00;;;14.60
20848;BMP180;10584;50.854;12.902;2022-10-16T03:46:25;97953.00;;;14.50
20848;BMP180;10584;50.854;12.902;2022-10-16T03:51:27;97943.00;;;14.50
20848;BMP180;10584;50.854;12.902;2022-10-16T03:56:30;97946.00;;;14.50
20848;BMP180;10584;50.854;12.902;2022-10-16T04:01:33;97949.00;;;14.40
20848;BMP180;10584;50.854;12.902;2022-10-16T04:06:36;97934.00;;;14.40
20848;BMP180;10584;50.854;12.902;2022-10-16T04:11:39;97944.00;;;14.40
20848;BMP180;10584;50.854;12.902;2022-10-16T04:16:41;97946.00;;;14.40
20848;BMP180;10584;50.854;12.902;2022-10-16T04:21:44;97946.00;;;14.30
20848;BMP180;10584;50.854;12.902;2022-10-16T04:26:47;97941.00;;;14.30
20848;BMP180;10584;50.854;12.902;2022-10-16T04:31:50;97946.00;;;14.30
20848;BMP180;10584;50.854;12.902;2022-10-16T04:36:53;97947.00;;;14.30
20848;BMP180;10584;50.854;12.902;2022-10-16T04:41:56;97949.00;;;14.30
20848;BMP180;10584;50.854;12.902;2022-10-16T04:46:58;97952.00;;;14.40
20848;BMP180;10584;50.854;12.902;2022-10-16T04:52:01;97960.00;;;14.40
20848;BMP180;10584;50.854;12.902;2022-10-16T04:57:04;97961.00;;;14.40
20848;BMP180;10584;50.854;12.902;2022-10-16T05:02:07;97968.00;;;14.40
20848;BMP180;10584;50.854;12.902;2022-10-16T05:07:10;97967.00;;;14.40
20848;BMP180;10584;50.854;12.902;2022-10-16T05:12:13;97970.00;;;14.40
20848;BMP180;10584;50.854;12.902;2022-10-16T05:17:15;97977.00;;;14.40
20848;BMP180;10584;50.854;12.902;2022-10-16T05:22:18;97976.00;;;14.50
20848;BMP180;10584;50.854;12.902;2022-10-16T05:27:21;97983.00;;;14.40
20848;BMP180;10584;50.854;12.902;2022-10-16T05:32:24;97996.00;;;14.50
20848;BMP180;10584;50.854;12.902;2022-10-16T05:37:28;98004.00;;;14.50
20848;BMP180;10584;50.854;12.902;2022-10-16T05:42:31;98008.00;;;14.40
20848;BMP180;10584;50.854;12.902;2022-10-16T05:47:33;98012.00;;;14.60
20848;BMP180;10584;50.854;12.902;2022-10-16T05:52:39;98014.00;;;14.70
20848;BMP180;10584;50.854;12.902;2022-10-16T05:57:41;98022.00;;;14.80
20848;BMP180;10584;50.854;12.902;2022-10-16T06:02:44;98016.00;;;14.90
20848;BMP180;10584;50.854;12.902;2022-10-16T06:07:47;98018.00;;;14.90
20848;BMP180;10584;50.854;12.902;2022-10-16T06:12:49;98017.00;;;15.00
20848;BMP180;10584;50.854;12.902;2022-10-16T06:17:52;98036.00;;;15.00
20848;BMP180;10584;50.854;12.902;2022-10-16T06:22:55;98056.00;;;14.90
20848;BMP180;10584;50.854;12.902;2022-10-16T06:27:58;98045.00;;;15.10
20848;BMP180;10584;50.854;12.902;2022-10-16T06:33:00;98055.00;;;15.20
20848;BMP180;10584;50.854;12.902;2022-10-16T06:38:03;98060.00;;;15.20
20848;BMP180;10584;50.854;12.902;2022-10-16T06:43:06;98071.00;;;15.30
20848;BMP180;10584;50.854;12.902;2022-10-16T06:48:09;98074.00;;;15.30
20848;BMP180;10584;50.854;12.902;2022-10-16T06:53:12;98073.00;;;15.30
20848;BMP180;10584;50.854;12.902;2022-10-16T06:58:15;98091.00;;;15.40
20848;BMP180;10584;50.854;12.902;2022-10-16T07:03:17;98105.00;;;15.50
20848;BMP180;10584;50.854;12.902;2022-10-16T07:08:20;98109.00;;;15.60
20848;BMP180;10584;50.854;12.902;2022-10-16T07:13:23;98105.00;;;15.60
20848;BMP180;10584;50.854;12.902;2022-10-16T07:18:28;98115.00;;;15.70
20848;BMP180;10584;50.854;12.902;2022-10-16T07:23:32;98122.00;;;15.80
20848;BMP180;10584;50.854;12.902;2022-10-16T07:28:35;98121.00;;;15.90
20848;BMP180;10584;50.854;12.902;2022-10-16T07:33:39;98120.00;;;16.10
20848;BMP180;10584;50.854;12.902;2022-10-16T07:38:43;98129.00;;;16.20
20848;BMP180;10584;50.854;12.902;2022-10-16T07:43:48;98136.00;;;16.40
20848;BMP180;10584;50.854;12.902;2022-10-16T07:48:51;98125.00;;;16.40
20848;BMP180;10584;50.854;12.902;2022-10-16T07:53:54;98137.00;;;16.50
20848;BMP180;10584;50.854;12.902;2022-10-16T07:58:56;98124.00;;;16.60
20848;BMP180;10584;50.854;12.902;2022-10-16T08:03:59;98131.00;;;16.60
20848;BMP180;10584;50.854;12.902;2022-10-16T08:09:02;98145.00;;;16.70
20848;BMP180;10584;50.854;12.902;2022-10-16T08:14:05;98150.00;;;16.90
20848;BMP180;10584;50.854;12.902;2022-10-16T08:19:07;98143.00;;;17.00
20848;BMP180;10584;50.854;12.902;2022-10-16T08:24:10;98145.00;;;17.10
20848;BMP180;10584;50.854;12.902;2022-10-16T08:29:14;98150.00;;;17.20
20848;BMP180;10584;50.854;12.902;2022-10-16T08:34:17;98141.00;;;17.40
20848;BMP180;10584;50.854;12.902;2022-10-16T08:39:20;98147.00;;;17.50
20848;BMP180;10584;50.854;12.902;2022-10-16T08:44:31;98146.00;;;17.60
20848;BMP180;10584;50.854;12.902;2022-10-16T08:49:41;98159.00;;;17.70
20848;BMP180;10584;50.854;12.902;2022-10-16T08:54:48;98160.00;;;17.90
20848;BMP180;10584;50.854;12.902;2022-10-16T08:59:54;98159.00;;;18.00
20848;BMP180;10584;50.854;12.902;2022-10-16T09:05:23;98171.00;;;18.10
20848;BMP180;10584;50.854;12.902;2022-10-16T09:15:44;98189.00;;;18.40
20848;BMP180;10584;50.854;12.902;2022-10-16T09:21:04;98191.00;;;18.50
20848;BMP180;10584;50.854;12.902;2022-10-16T09:26:14;98188.00;;;18.50
20848;BMP180;10584;50.854;12.902;2022-10-16T09:31:22;98196.00;;;18.60
20848;BMP180;10584;50.854;12.902;2022-10-16T09:36:27;98204.00;;;18.60
20848;BMP180;10584;50.854;12.902;2022-10-16T09:41:33;98196.00;;;18.80
20848;BMP180;10584;50.854;12.902;2022-10-16T09:46:37;98204.00;;;18.90
20848;BMP180;10584;50.854;12.902;2022-10-16T09:51:42;98204.00;;;19.10
20848;BMP180;10584;50.854;12.902;2022-10-16T09:56:45;98221.00;;;19.00
20848;BMP180;10584;50.854;12.902;2022-10-16T10:01:54;98228.00;;;18.90
20848;BMP180;10584;50.854;12.902;2022-10-16T10:06:58;98233.00;;;19.00
20848;BMP180;10584;50.854;12.902;2022-10-16T10:12:02;98233.00;;;19.00
20848;BMP180;10584;50.854;12.902;2022-10-16T10:22:44;98243.00;;;19.30
20848;BMP180;10584;50.854;12.902;2022-10-16T10:44:01;98249.00;;;19.60
20848;BMP180;10584;50.854;12.902;2022-10-16T10:49:43;98265.00;;;19.60
20848;BMP180;10584;50.854;12.902;2022-10-16T10:55:09;98254.00;;;19.60
20848;BMP180;10584;50.854;12.902;2022-10-16T11:00:52;98246.00;;;19.60
20848;BMP180;10584;50.854;12.902;2022-10-16T11:16:42;98269.00;;;20.00
20848;BMP180;10584;50.854;12.902;2022-10-16T11:22:03;98257.00;;;20.00
20848;BMP180;10584;50.854;12.902;2022-10-16T11:27:10;98265.00;;;20.10
20848;BMP180;10584;50.854;12.902;2022-10-16T11:32:38;98253.00;;;20.20
20848;BMP180;10584;50.854;12.902;2022-10-16T11:37:45;98274.00;;;20.50
20848;BMP180;10584;50.854;12.902;2022-10-16T11:42:58;98273.00;;;20.60
20848;BMP180;10584;50.854;12.902;2022-10-16T11:48:33;98280.00;;;20.50
20848;BMP180;10584;50.854;12.902;2022-10-16T11:53:46;98283.00;;;20.70
20848;BMP180;10584;50.854;12.902;2022-10-16T11:59:23;98286.00;;;21.00
20848;BMP180;10584;50.854;12.902;2022-10-16T12:04:43;98282.00;;;21.20
20848;BMP180;10584;50.854;12.902;2022-10-16T12:09:49;98275.00;;;21.60
20848;BMP180;10584;50.854;12.902;2022-10-16T12:15:15;98272.00;;;21.90
20848;BMP180;10584;50.854;12.902;2022-10-16T12:20:32;98289.00;;;21.80
20848;BMP180;10584;50.854;12.902;2022-10-16T12:25:39;98302.00;;;21.90
20848;BMP180;10584;50.854;12.902;2022-10-16T12:31:00;98301.00;;;21.70
20848;BMP180;10584;50.854;12.902;2022-10-16T12:36:31;98304.00;;;21.80
20848;BMP180;10584;50.854;12.902;2022-10-16T12:41:35;98309.00;;;21.60
20848;BMP180;10584;50.854;12.902;2022-10-16T12:46:42;98307.00;;;21.20
20848;BMP180;10584;50.854;12.902;2022-10-16T12:51:44;98326.00;;;21.40
20848;BMP180;10584;50.854;12.902;2022-10-16T13:13:07;98322.00;;;21.00
20848;BMP180;10584;50.854;12.902;2022-10-16T13:29:13;98333.00;;;20.70
20848;BMP180;10584;50.854;12.902;2022-10-16T13:34:20;98340.00;;;20.70
20848;BMP180;10584;50.854;12.902;2022-10-16T13:39:28;98344.00;;;20.70
20848;BMP180;10584;50.854;12.902;2022-10-16T13:44:41;98338.00;;;20.70
20848;BMP180;10584;50.854;12.902;2022-10-16T13:49:45;98340.00;;;20.50
20848;BMP180;10584;50.854;12.902;2022-10-16T13:54:48;98345.00;;;20.60
20848;BMP180;10584;50.854;12.902;2022-10-16T13:59:52;98344.00;;;20.70
20848;BMP180;10584;50.854;12.902;2022-10-16T14:04:55;98348.00;;;20.70
20848;BMP180;10584;50.854;12.902;2022-10-16T14:10:24;98345.00;;;20.80
20848;BMP180;10584;50.854;12.902;2022-10-16T14:15:29;98341.00;;;21.00
20848;BMP180;10584;50.854;12.902;2022-10-16T14:20:33;98344.00;;;21.40
20848;BMP180;10584;50.854;12.902;2022-10-16T14:25:37;98358.00;;;21.40
20848;BMP180;10584;50.854;12.902;2022-10-16T14:36:18;98367.00;;;21.50
20848;BMP180;10584;50.854;12.902;2022-10-16T14:41:23;98367.00;;;21.30
20848;BMP180;10584;50.854;12.902;2022-10-16T14:46:36;98383.00;;;21.40
20848;BMP180;10584;50.854;12.902;2022-10-16T14:51:42;98384.00;;;21.50
20848;BMP180;10584;50.854;12.902;2022-10-16T14:56:50;98391.00;;;21.60
20848;BMP180;10584;50.854;12.902;2022-10-16T15:01:53;98391.00;;;21.60
20848;BMP180;10584;50.854;12.902;2022-10-16T15:06:56;98396.00;;;21.50
20848;BMP180;10584;50.854;12.902;2022-10-16T15:11:58;98410.00;;;21.50
20848;BMP180;10584;50.854;12.902;2022-10-16T15:17:01;98407.00;;;21.10
20848;BMP180;10584;50.854;12.902;2022-10-16T15:22:04;98405.00;;;21.00
20848;BMP180;10584;50.854;12.902;2022-10-16T15:27:07;98408.00;;;20.50
20848;BMP180;10584;50.854;12.902;2022-10-16T15:32:11;98410.00;;;20.70
20848;BMP180;10584;50.854;12.902;2022-10-16T15:37:14;98418.00;;;20.50
20848;BMP180;10584;50.854;12.902;2022-10-16T15:42:16;98422.00;;;20.50
20848;BMP180;10584;50.854;12.902;2022-10-16T15:47:19;98417.00;;;20.40
20848;BMP180;10584;50.854;12.902;2022-10-16T15:52:22;98431.00;;;20.30
20848;BMP180;10584;50.854;12.902;2022-10-16T15:57:27;98434.00;;;20.20
20848;BMP180;10584;50.854;12.902;2022-10-16T16:02:30;98435.00;;;20.00
20848;BMP180;10584;50.854;12.902;2022-10-16T16:07:34;98437.00;;;19.80
20848;BMP180;10584;50.854;12.902;2022-10-16T16:12:38;98450.00;;;19.60
20848;BMP180;10584;50.854;12.902;2022-10-16T16:17:41;98458.00;;;19.30
20848;BMP180;10584;50.854;12.902;2022-10-16T16:22:43;98461.00;;;19.10
20848;BMP180;10584;50.854;12.902;2022-10-16T16:27:46;98472.00;;;18.90
20848;BMP180;10584;50.854;12.902;2022-10-16T16:32:49;98483.00;;;18.70
20848;BMP180;10584;50.854;12.902;2022-10-16T16:37:52;98490.00;;;18.50
20848;BMP180;10584;50.854;12.902;2022-10-16T16:42:54;98499.00;;;18.30
20848;BMP180;10584;50.854;12.902;2022-10-16T16:47:57;98518.00;;;18.10
20848;BMP180;10584;50.854;12.902;2022-10-16T16:53:00;98529.00;;;17.90
20848;BMP180;10584;50.854;12.902;2022-10-16T16:58:03;98534.00;;;17.70
20848;BMP180;10584;50.854;12.902;2022-10-16T17:03:07;98539.00;;;17.50
20848;BMP180;10584;50.854;12.902;2022-10-16T17:08:09;98539.00;;;17.40
20848;BMP180;10584;50.854;12.902;2022-10-16T17:13:12;98551.00;;;17.20
20848;BMP180;10584;50.854;12.902;2022-10-16T17:18:15;98552.00;;;17.10
20848;BMP180;10584;50.854;12.902;2022-10-16T17:23:19;98566.00;;;17.00
20848;BMP180;10584;50.854;12.902;2022-10-16T17:28:22;98562.00;;;16.80
20848;BMP180;10584;50.854;12.902;2022-10-16T17:33:25;98562.00;;;16.70
20848;BMP180;10584;50.854;12.902;2022-10-16T17:38:27;98570.00;;;16.60
20848;BMP180;10584;50.854;12.902;2022-10-16T17:43:30;98579.00;;;16.50
20848;BMP180;10584;50.854;12.902;2022-10-16T17:48:38;98587.00;;;16.30
20848;BMP180;10584;50.854;12.902;2022-10-16T17:53:41;98591.00;;;16.20
20848;BMP180;10584;50.854;12.902;2022-10-16T17:58:51;98585.00;;;16.10
20848;BMP180;10584;50.854;12.902;2022-10-16T18:04:09;98592.00;;;16.00
20848;BMP180;10584;50.854;12.902;2022-10-16T18:09:15;98598.00;;;16.00
20848;BMP180;10584;50.854;12.902;2022-10-16T18:14:19;98598.00;;;15.90
20848;BMP180;10584;50.854;12.902;2022-10-16T18:19:23;98602.00;;;16.00
20848;BMP180;10584;50.854;12.902;2022-10-16T18:24:27;98607.00;;;15.90
20848;BMP180;10584;50.854;12.902;2022-10-16T18:29:30;98613.00;;;16.00
20848;BMP180;10584;50.854;12.902;2022-10-16T18:34:33;98608.00;;;16.00
20848;BMP180;10584;50.854;12.902;2022-10-16T18:39:38;98596.00;;;15.90
20848;BMP180;10584;50.854;12.902;2022-10-16T18:44:42;98599.00;;;15.90
20848;BMP180;10584;50.854;12.902;2022-10-16T18:49:47;98615.00;;;16.00
20848;BMP180;10584;50.854;12.902;2022-10-16T18:54:53;98609.00;;;15.90
20848;BMP180;10584;50.854;12.902;2022-10-16T18:59:57;98601.00;;;16.00
20848;BMP180;10584;50.854;12.902;2022-10-16T19:05:00;98607.00;;;16.00
20848;BMP180;10584;50.854;12.902;2022-10-16T19:10:08;98607.00;;;16.00
20848;BMP180;10584;50.854;12.902;2022-10-16T19:15:10;98627.00;;;16.00
20848;BMP180;10584;50.854;12.902;2022-10-16T19:20:13;98627.00;;;16.00
20848;BMP180;10584;50.854;12.902;2022-10-16T19:25:16;98623.00;;;16.00
20848;BMP180;10584;50.854;12.902;2022-10-16T19:30:19;98619.00;;;16.00
20848;BMP180;10584;50.854;12.902;2022-10-16T19:35:22;98624.00;;;15.90
20848;BMP180;10584;50.854;12.902;2022-10-16T19:40:25;98634.00;;;16.00
20848;BMP180;10584;50.854;12.902;2022-10-16T19:45:28;98636.00;;;16.00
20848;BMP180;10584;50.854;12.902;2022-10-16T19:50:31;98638.00;;;15.90
20848;BMP180;10584;50.854;12.902;2022-10-16T19:55:34;98639.00;;;15.90
20848;BMP180;10584;50.854;12.902;2022-10-16T20:00:40;98624.00;;;15.90
20848;BMP180;10584;50.854;12.902;2022-10-16T20:05:54;98629.00;;;15.80
20848;BMP180;10584;50.854;12.902;2022-10-16T20:10:58;98639.00;;;15.60
20848;BMP180;10584;50.854;12.902;2022-10-16T20:16:02;98642.00;;;15.60
20848;BMP180;10584;50.854;12.902;2022-10-16T20:21:14;98648.00;;;15.50
20848;BMP180;10584;50.854;12.902;2022-10-16T20:26:19;98653.00;;;15.50
20848;BMP180;10584;50.854;12.902;2022-10-16T20:31:26;98656.00;;;15.40
20848;BMP180;10584;50.854;12.902;2022-10-16T20:36:29;98664.00;;;15.30
20848;BMP180;10584;50.854;12.902;2022-10-16T20:41:34;98671.00;;;15.20
20848;BMP180;10584;50.854;12.902;2022-10-16T20:46:36;98685.00;;;15.10
20848;BMP180;10584;50.854;12.902;2022-10-16T20:51:39;98683.00;;;14.90
20848;BMP180;10584;50.854;12.902;2022-10-16T20:56:42;98681.00;;;14.80
20848;BMP180;10584;50.854;12.902;2022-10-16T21:01:45;98680.00;;;14.70
20848;BMP180;10584;50.854;12.902;2022-10-16T21:06:48;98680.00;;;14.60
20848;BMP180;10584;50.854;12.902;2022-10-16T21:11:51;98686.00;;;14.60
20848;BMP180;10584;50.854;12.902;2022-10-16T21:16:53;98689.00;;;14.50
20848;BMP180;10584;50.854;12.902;2022-10-16T21:21:56;98691.00;;;14.40
20848;BMP180;10584;50.854;12.902;2022-10-16T21:26:59;98694.00;;;14.40
20848;BMP180;10584;50.854;12.902;2022-10-16T21:32:02;98687.00;;;14.40
20848;BMP180;10584;50.854;12.902;2022-10-16T21:37:05;98701.00;;;14.30
20848;BMP180;10584;50.854;12.902;2022-10-16T21:42:08;98704.00;;;14.30
20848;BMP180;10584;50.854;12.902;2022-10-16T21:47:10;98715.00;;;14.30
20848;BMP180;10584;50.854;12.902;2022-10-16T21:52:13;98707.00;;;14.30
20848;BMP180;10584;50.854;12.902;2022-10-16T21:57:16;98714.00;;;14.30
20848;BMP180;10584;50.854;12.902;2022-10-16T22:02:19;98706.00;;;14.20
20848;BMP180;10584;50.854;12.902;2022-10-16T22:07:21;98715.00;;;14.10
20848;BMP180;10584;50.854;12.902;2022-10-16T22:12:24;98719.00;;;14.10
20848;BMP180;10584;50.854;12.902;2022-10-16T22:17:27;98717.00;;;14.00
20848;BMP180;10584;50.854;12.902;2022-10-16T22:22:31;98711.00;;;13.90
20848;BMP180;10584;50.854;12.902;2022-10-16T22:27:34;98716.00;;;13.80
20848;BMP180;10584;50.854;12.902;2022-10-16T22:32:36;98712.00;;;13.70
20848;BMP180;10584;50.854;12.902;2022-10-16T22:37:39;98708.00;;;13.70
20848;BMP180;10584;50.854;12.902;2022-10-16T22:42:42;98716.00;;;13.60
20848;BMP180;10584;50.854;12.902;2022-10-16T22:47:45;98708.00;;;13.50
20848;BMP180;10584;50.854;12.902;2022-10-16T22:52:48;98705.00;;;13.40
20848;BMP180;10584;50.854;12.902;2022-10-16T22:57:54;98695.00;;;13.30
20848;BMP180;10584;50.854;12.902;2022-10-16T23:02:56;98703.00;;;13.20
20848;BMP180;10584;50.854;12.902;2022-10-16T23:07:59;98713.00;;;13.30
20848;BMP180;10584;50.854;12.902;2022-10-16T23:13:02;98710.00;;;13.30
20848;BMP180;10584;50.854;12.902;2022-10-16T23:18:05;98712.00;;;13.30
20848;BMP180;10584;50.854;12.902;2022-10-16T23:23:08;98716.00;;;13.40
20848;BMP180;10584;50.854;12.902;2022-10-16T23:28:11;98723.00;;;13.50
20848;BMP180;10584;50.854;12.902;2022-10-16T23:33:14;98717.00;;;13.60
20848;BMP180;10584;50.854;12.902;2022-10-16T23:38:17;98717.00;;;13.70
20848;BMP180;10584;50.854;12.902;2022-10-16T23:43:20;98702.00;;;13.70
20848;BMP180;10584;50.854;12.902;2022-10-16T23:48:23;98698.00;;;13.70
20848;BMP180;10584;50.854;12.902;2022-10-16T23:53:26;98707.00;;;13.80
20848;BMP180;10584;50.854;12.902;2022-10-16T23:58:29;98696.00;;;13.80
